createdAt,value
2018-04-18T00:01:38.386Z,57.57
2018-04-18T00:04:06.853Z,59.02
2018-04-18T00:06:35.557Z,57.95
2018-04-18T00:09:03.917Z,57.29
2018-04-18T00:11:32.941Z,58.92
2018-04-18T00:14:02.164Z,58.06
2018-04-18T00:16:30.622Z,57.42
2018-04-18T00:18:59.174Z,58.89
2018-04-18T00:21:27.539Z,58.51
2018-04-18T00:23:56.128Z,57.68
2018-04-18T00:26:24.630Z,58.34
2018-04-18T00:28:53.041Z,59.61
2018-04-18T00:31:21.507Z,60.58
2018-04-18T00:33:49.933Z,59.03
2018-04-18T00:36:18.391Z,58.68
2018-04-18T00:38:46.993Z,59.87
2018-04-18T00:41:15.434Z,59.70
2018-04-18T00:43:43.833Z,59.01
2018-04-18T00:46:12.220Z,59.28
2018-04-18T00:48:40.626Z,59.89
2018-04-18T00:51:09.129Z,58.33
2018-04-18T00:53:37.618Z,58.25
2018-04-18T00:56:06.039Z,58.15
2018-04-18T00:58:34.426Z,58.93
2018-04-18T01:01:03.326Z,58.59
2018-04-18T01:03:32.068Z,59.64
2018-04-18T01:06:00.503Z,59.79
2018-04-18T01:08:29.413Z,58.87
2018-04-18T01:10:59.093Z,60.78
2018-04-18T01:13:27.627Z,60.85
2018-04-18T01:15:56.009Z,59.58
2018-04-18T01:18:24.413Z,59.80
2018-04-18T01:20:52.817Z,59.16
2018-04-18T01:23:21.222Z,60.71
2018-04-18T01:25:49.690Z,60.74
2018-04-18T01:28:18.073Z,59.26
2018-04-18T01:30:46.478Z,60.00
2018-04-18T01:33:14.877Z,60.29
2018-04-18T01:35:43.274Z,59.90
2018-04-18T01:38:11.823Z,59.31
2018-04-18T01:40:40.234Z,59.56
2018-04-18T01:43:08.630Z,59.51
2018-04-18T01:45:36.999Z,59.31
2018-04-18T01:48:05.528Z,60.00
2018-04-18T01:50:33.895Z,59.02
2018-04-18T01:53:02.263Z,59.41
2018-04-18T01:55:30.618Z,59.45
2018-04-18T01:57:59.003Z,59.26
2018-04-18T02:00:27.370Z,59.40
2018-04-18T02:02:55.730Z,59.66
2018-04-18T02:05:24.166Z,61.34
2018-04-18T02:07:52.531Z,60.28
2018-04-18T02:10:20.941Z,61.08
2018-04-18T02:12:49.395Z,60.88
2018-04-18T02:15:17.752Z,59.06
2018-04-18T02:17:46.128Z,59.20
2018-04-18T02:20:14.613Z,60.49
2018-04-18T02:22:43.060Z,60.49
2018-04-18T02:25:11.425Z,60.36
2018-04-18T02:27:39.897Z,59.58
2018-04-18T02:30:09.235Z,60.47
2018-04-18T02:32:37.573Z,61.06
2018-04-18T02:35:06.045Z,60.92
2018-04-18T02:37:34.421Z,59.67
2018-04-18T02:40:02.830Z,60.19
2018-04-18T02:42:31.185Z,60.46
2018-04-18T02:44:59.559Z,61.33
2018-04-18T02:47:28.040Z,61.38
2018-04-18T02:49:56.415Z,62.01
2018-04-18T02:52:24.810Z,60.72
2018-04-18T02:54:53.210Z,61.46
2018-04-18T02:57:21.711Z,60.53
2018-04-18T02:59:50.114Z,59.78
2018-04-18T03:02:18.519Z,60.99
2018-04-18T03:04:46.918Z,60.91
2018-04-18T03:07:15.331Z,61.44
2018-04-18T03:09:43.739Z,61.80
2018-04-18T03:12:12.139Z,60.68
2018-04-18T03:14:40.643Z,62.53
2018-04-18T03:17:09.112Z,62.43
2018-04-18T03:19:37.509Z,60.90
2018-04-18T03:22:05.895Z,60.51
2018-04-18T03:24:34.305Z,60.72
2018-04-18T03:27:02.712Z,60.92
2018-04-18T03:29:31.095Z,61.03
2018-04-18T03:31:59.485Z,61.20
2018-04-18T03:34:27.891Z,60.75
2018-04-18T03:36:56.349Z,60.39
2018-04-18T03:39:24.744Z,61.42
2018-04-18T03:41:53.137Z,60.55
2018-04-18T03:44:21.589Z,61.58
2018-04-18T03:46:50.898Z,63.42
2018-04-18T03:49:19.286Z,63.08
2018-04-18T03:51:47.785Z,64.58
2018-04-18T03:54:16.226Z,62.38
2018-04-18T03:56:44.769Z,61.65
2018-04-18T03:59:13.173Z,60.84
2018-04-18T04:01:41.546Z,61.35
2018-04-18T04:04:09.949Z,62.70
2018-04-18T04:06:38.425Z,60.95
2018-04-18T04:09:06.866Z,60.95
2018-04-18T04:11:35.223Z,63.94
2018-04-18T04:14:03.607Z,64.12
2018-04-18T04:16:43.679Z,64.24
2018-04-18T04:19:23.759Z,60.94
2018-04-18T04:22:03.785Z,62.22
2018-04-18T04:24:40.777Z,62.82
2018-04-18T04:27:09.400Z,62.74
2018-04-18T04:29:37.859Z,63.18
2018-04-18T04:32:06.346Z,62.54
2018-04-18T04:34:34.776Z,61.12
2018-04-18T04:37:03.300Z,61.10
2018-04-18T04:39:31.733Z,61.31
2018-04-18T04:42:00.438Z,60.96
2018-04-18T04:44:29.222Z,62.12
2018-04-18T04:46:58.055Z,62.90
2018-04-18T04:49:26.789Z,60.85
2018-04-18T04:51:55.408Z,61.45
2018-04-18T04:54:32.434Z,60.88
2018-04-18T04:57:01.051Z,60.83
2018-04-18T04:59:29.793Z,62.11
2018-04-18T05:01:58.487Z,61.51
2018-04-18T05:04:27.293Z,60.95
2018-04-18T05:06:56.122Z,62.31
2018-04-18T05:09:24.934Z,62.26
2018-04-18T05:11:53.383Z,61.90
2018-04-18T05:14:21.811Z,61.69
2018-04-18T05:16:50.202Z,60.83
2018-04-18T05:19:18.708Z,59.86
2018-04-18T05:21:47.158Z,59.96
2018-04-18T05:24:15.561Z,60.18
2018-04-18T05:26:44.055Z,62.21
2018-04-18T05:29:12.473Z,60.02
2018-04-18T05:31:40.869Z,60.11
2018-04-18T05:34:09.348Z,59.76
2018-04-18T05:36:38.177Z,59.53
2018-04-18T05:39:06.996Z,59.81
2018-04-18T05:41:35.770Z,59.20
2018-04-18T05:44:04.547Z,59.73
2018-04-18T05:46:33.172Z,58.82
2018-04-18T05:49:01.911Z,59.15
2018-04-18T05:51:30.585Z,58.50
2018-04-18T05:53:59.116Z,58.90
2018-04-18T05:56:27.814Z,57.33
2018-04-18T05:58:56.531Z,57.61
2018-04-18T06:01:25.028Z,57.27
2018-04-18T06:03:53.720Z,55.86
2018-04-18T06:06:22.268Z,54.79
2018-04-18T06:08:50.677Z,53.78
2018-04-18T06:11:19.391Z,54.27
2018-04-18T06:13:48.472Z,51.64
2018-04-18T06:16:17.338Z,43.11
2018-04-18T06:18:46.120Z,36.99
2018-04-18T06:21:14.830Z,34.45
2018-04-18T06:23:44.230Z,33.19
2018-04-18T06:26:13.057Z,30.80
2018-04-18T06:28:42.336Z,30.03
2018-04-18T06:31:11.496Z,29.23
2018-04-18T06:33:40.070Z,30.28
2018-04-18T06:36:09.171Z,29.82
2018-04-18T06:38:37.666Z,27.18
2018-04-18T06:41:06.183Z,26.25
2018-04-18T06:43:34.586Z,27.28
2018-04-18T06:46:02.985Z,26.50
2018-04-18T06:48:31.378Z,24.18
2018-04-18T06:50:59.784Z,24.76
2018-04-18T06:53:28.227Z,24.14
2018-04-18T06:55:56.600Z,23.40
2018-04-18T06:58:24.983Z,22.67
2018-04-18T07:00:53.381Z,21.53
2018-04-18T07:03:21.763Z,22.50
2018-04-18T07:05:50.159Z,21.26
2018-04-18T07:08:18.560Z,19.37
2018-04-18T07:10:46.994Z,19.77
2018-04-18T07:13:15.495Z,20.54
2018-04-18T07:15:43.895Z,21.67
2018-04-18T07:18:12.263Z,21.72
2018-04-18T07:20:40.670Z,21.49
2018-04-18T07:23:09.121Z,21.23
2018-04-18T07:25:37.547Z,20.59
2018-04-18T07:28:05.930Z,19.87
2018-04-18T07:30:34.322Z,20.40
2018-04-18T07:33:02.703Z,19.30
2018-04-18T07:35:31.242Z,18.89
2018-04-18T07:37:59.635Z,18.50
2018-04-18T07:40:28.021Z,16.21
2018-04-18T07:42:56.422Z,17.93
2018-04-18T07:45:24.798Z,16.69
2018-04-18T07:47:53.244Z,17.57
2018-04-18T07:50:21.597Z,16.79
2018-04-18T07:52:50.002Z,14.99
2018-04-18T07:55:18.413Z,15.16
2018-04-18T07:57:47.776Z,15.12
2018-04-18T08:00:16.302Z,14.51
2018-04-18T08:02:44.908Z,14.02
2018-04-18T08:05:13.541Z,13.22
2018-04-18T08:07:42.244Z,14.08
2018-04-18T08:10:10.851Z,14.62
2018-04-18T08:12:39.407Z,13.83
2018-04-18T08:15:08.110Z,13.34
2018-04-18T08:17:36.853Z,14.28
2018-04-18T08:20:05.600Z,13.77
2018-04-18T08:22:34.098Z,13.95
2018-04-18T08:25:02.462Z,13.85
2018-04-18T08:27:30.827Z,12.93
2018-04-18T08:29:59.188Z,13.80
2018-04-18T08:32:27.879Z,11.90
2018-04-18T08:34:56.290Z,12.76
2018-04-18T08:37:24.647Z,13.86
2018-04-18T08:39:53.044Z,16.38
2018-04-18T08:42:21.684Z,14.21
2018-04-18T08:44:57.679Z,13.49
2018-04-18T08:47:27.676Z,14.08
2018-04-18T08:49:56.761Z,13.56
2018-04-18T08:52:25.218Z,13.06
2018-04-18T08:54:53.609Z,13.11
2018-04-18T08:57:22.005Z,12.46
2018-04-18T08:59:50.430Z,15.20
2018-04-18T09:02:18.792Z,13.50
2018-04-18T09:04:47.147Z,14.22
2018-04-18T09:07:15.557Z,13.21
2018-04-18T09:09:43.928Z,15.16
2018-04-18T09:12:14.285Z,15.28
2018-04-18T09:14:42.669Z,14.80
2018-04-18T09:17:11.056Z,15.59
2018-04-18T09:19:40.413Z,13.97
2018-04-18T09:22:09.647Z,15.47
2018-04-18T09:24:38.410Z,15.58
2018-04-18T09:27:06.819Z,14.97
2018-04-18T09:29:36.622Z,16.05
2018-04-18T09:32:05.021Z,16.12
2018-04-18T09:34:33.382Z,15.88
2018-04-18T09:37:01.734Z,15.88
2018-04-18T09:39:30.103Z,14.89
2018-04-18T09:41:58.518Z,14.50
2018-04-18T09:44:26.901Z,13.72
2018-04-18T09:46:55.267Z,16.07
2018-04-18T09:49:23.636Z,15.13
2018-04-18T09:51:52.031Z,16.08
2018-04-18T09:54:20.459Z,15.35
2018-04-18T09:56:48.809Z,16.12
2018-04-18T09:59:17.241Z,16.13
2018-04-18T10:01:47.709Z,16.36
2018-04-18T10:04:31.385Z,16.41
2018-04-18T10:06:59.741Z,17.35
2018-04-18T10:09:28.127Z,16.67
2018-04-18T10:11:56.528Z,16.31
2018-04-18T10:14:24.900Z,17.06
2018-04-18T10:16:53.273Z,17.75
2018-04-18T10:19:21.645Z,17.41
2018-04-18T10:21:50.001Z,16.22
2018-04-18T10:24:18.431Z,16.41
2018-04-18T10:26:46.983Z,15.04
2018-04-18T10:29:15.341Z,15.98
2018-04-18T10:31:43.717Z,15.42
2018-04-18T10:34:12.087Z,15.17
2018-04-18T10:36:40.489Z,16.91
2018-04-18T10:39:08.855Z,18.26
2018-04-18T10:41:37.220Z,17.25
2018-04-18T10:44:05.588Z,16.93
2018-04-18T10:46:34.043Z,16.38
2018-04-18T10:49:02.557Z,16.32
2018-04-18T10:51:31.277Z,17.50
2018-04-18T10:53:59.723Z,16.93
2018-04-18T10:56:28.216Z,16.62
2018-04-18T10:58:56.655Z,16.50
2018-04-18T11:01:25.070Z,16.92
2018-04-18T11:03:53.438Z,16.12
2018-04-18T11:06:21.810Z,16.38
2018-04-18T11:08:50.175Z,17.16
2018-04-18T11:11:18.566Z,17.12
2018-04-18T11:13:46.932Z,17.95
2018-04-18T11:16:15.318Z,18.09
2018-04-18T11:18:43.767Z,17.41
2018-04-18T11:21:12.099Z,16.65
2018-04-18T11:23:40.479Z,16.94
2018-04-18T11:26:08.840Z,16.54
2018-04-18T11:28:37.210Z,17.35
2018-04-18T11:31:05.808Z,16.95
2018-04-18T11:33:34.234Z,16.18
2018-04-18T11:36:02.628Z,16.63
2018-04-18T11:38:31.347Z,16.07
2018-04-18T11:40:59.852Z,15.81
2018-04-18T11:43:28.242Z,16.34
2018-04-18T11:45:56.711Z,16.85
2018-04-18T11:48:25.162Z,16.54
2018-04-18T11:50:53.600Z,16.83
2018-04-18T11:53:22.929Z,16.68
2018-04-18T11:55:51.310Z,16.73
2018-04-18T11:58:19.719Z,17.84
2018-04-18T12:00:48.118Z,18.42
2018-04-18T12:03:16.677Z,17.94
2018-04-18T12:05:45.069Z,18.32
2018-04-18T12:08:13.479Z,18.79
2018-04-18T12:10:41.858Z,18.76
2018-04-18T12:13:10.271Z,19.35
2018-04-18T12:15:38.717Z,18.71
2018-04-18T12:18:07.120Z,19.61
2018-04-18T12:20:35.522Z,19.62
2018-04-18T12:23:03.910Z,20.28
2018-04-18T12:25:32.323Z,19.22
2018-04-18T12:28:00.696Z,19.69
2018-04-18T12:30:31.982Z,19.27
2018-04-18T12:33:00.424Z,19.20
2018-04-18T12:35:28.803Z,19.18
2018-04-18T12:37:57.166Z,18.81
2018-04-18T12:40:25.812Z,19.81
2018-04-18T12:42:54.172Z,19.26
2018-04-18T12:45:22.618Z,18.72
2018-04-18T12:47:51.006Z,19.17
2018-04-18T12:50:19.383Z,20.19
2018-04-18T12:52:47.755Z,18.99
2018-04-18T12:55:16.123Z,19.01
2018-04-18T12:57:44.601Z,19.49
2018-04-18T13:00:13.136Z,20.50
2018-04-18T13:02:41.606Z,21.08
2018-04-18T13:05:09.975Z,21.00
2018-04-18T13:07:38.386Z,20.69
2018-04-18T13:10:06.783Z,20.91
2018-04-18T13:12:35.189Z,20.94
2018-04-18T13:15:03.621Z,20.19
2018-04-18T13:17:32.000Z,19.83
2018-04-18T13:20:00.392Z,20.65
2018-04-18T13:22:28.783Z,20.33
2018-04-18T13:24:57.296Z,20.58
2018-04-18T13:27:28.210Z,19.67
2018-04-18T13:29:56.750Z,20.81
2018-04-18T13:32:25.294Z,20.77
2018-04-18T13:34:54.201Z,21.31
2018-04-18T13:37:22.595Z,21.74
2018-04-18T13:39:51.115Z,21.40
2018-04-18T13:42:19.563Z,20.60
2018-04-18T13:44:47.978Z,20.76
2018-04-18T13:47:16.390Z,19.95
2018-04-18T13:49:44.761Z,21.23
2018-04-18T13:52:13.159Z,21.49
2018-04-18T13:54:41.553Z,20.93
2018-04-18T13:57:09.996Z,21.47
2018-04-18T13:59:38.478Z,21.67
2018-04-18T14:02:06.858Z,21.84
2018-04-18T14:04:35.242Z,21.63
2018-04-18T14:07:03.643Z,22.36
2018-04-18T14:09:32.115Z,21.96
2018-04-18T14:12:00.506Z,22.05
2018-04-18T14:14:28.903Z,21.11
2018-04-18T14:16:57.311Z,20.67
2018-04-18T14:19:25.811Z,21.45
2018-04-18T14:21:54.237Z,20.19
2018-04-18T14:24:22.699Z,21.11
2018-04-18T14:26:51.087Z,21.78
2018-04-18T14:29:19.554Z,21.43
2018-04-18T14:31:48.054Z,21.60
2018-04-18T14:34:16.436Z,22.60
2018-04-18T14:36:44.829Z,21.98
2018-04-18T14:39:13.676Z,21.35
2018-04-18T14:41:42.046Z,21.50
2018-04-18T14:44:10.456Z,21.38
2018-04-18T14:46:38.850Z,21.39
2018-04-18T14:49:07.230Z,21.06
2018-04-18T14:51:35.598Z,20.55
2018-04-18T14:54:04.099Z,21.73
2018-04-18T14:56:32.467Z,20.71
2018-04-18T14:59:00.824Z,21.08
2018-04-18T15:01:29.178Z,20.54
2018-04-18T15:03:57.545Z,21.10
2018-04-18T15:06:25.915Z,21.68
2018-04-18T15:08:54.278Z,21.42
2018-04-18T15:11:22.730Z,20.92
2018-04-18T15:13:51.099Z,21.16
2018-04-18T15:16:19.496Z,21.87
2018-04-18T15:18:47.855Z,21.70
2018-04-18T15:21:16.973Z,22.15
2018-04-18T15:23:45.585Z,21.64
2018-04-18T15:26:14.176Z,21.65
2018-04-18T15:28:44.614Z,21.74
2018-04-18T15:31:14.025Z,21.25
2018-04-18T15:33:42.528Z,21.10
2018-04-18T15:36:10.909Z,21.66
2018-04-18T15:38:39.305Z,21.01
2018-04-18T15:41:07.734Z,21.54
2018-04-18T15:46:21.383Z,21.54
2018-04-18T15:48:49.749Z,21.71
2018-04-18T15:51:18.134Z,22.26
2018-04-18T15:53:46.508Z,23.47
2018-04-18T15:56:14.950Z,22.67
2018-04-18T15:58:43.299Z,22.16
2018-04-18T16:01:11.728Z,21.95
2018-04-18T16:03:40.096Z,23.01
2018-04-18T16:06:08.537Z,22.73
2018-04-18T16:08:36.904Z,23.48
2018-04-18T16:11:05.330Z,23.74
2018-04-18T16:13:33.719Z,24.06
2018-04-18T16:16:02.073Z,22.55
2018-04-18T16:18:30.472Z,23.30
2018-04-18T16:20:58.881Z,23.28
2018-04-18T16:23:27.285Z,23.18
2018-04-18T16:25:55.660Z,24.24
2018-04-18T16:28:24.018Z,23.66
2018-04-18T16:30:52.459Z,23.08
2018-04-18T16:33:20.825Z,23.78
2018-04-18T16:35:49.230Z,23.22
2018-04-18T16:38:17.627Z,23.39
2018-04-18T16:40:45.998Z,23.62
2018-04-18T16:43:14.403Z,23.27
2018-04-18T16:45:42.785Z,23.69
2018-04-18T16:48:11.178Z,23.92
2018-04-18T16:50:39.566Z,24.84
2018-04-18T16:53:07.973Z,23.26
2018-04-18T16:55:36.359Z,23.56
2018-04-18T16:58:04.721Z,23.80
2018-04-18T17:00:33.090Z,23.71
2018-04-18T17:03:01.495Z,24.31
2018-04-18T17:05:29.895Z,23.63
2018-04-18T17:07:58.261Z,24.14
2018-04-18T17:10:26.710Z,24.53
2018-04-18T17:12:55.077Z,24.22
2018-04-18T17:15:23.450Z,24.53
2018-04-18T17:17:52.026Z,24.34
2018-04-18T17:20:21.032Z,24.85
2018-04-18T17:22:51.551Z,25.27
2018-04-18T17:25:19.949Z,25.47
2018-04-18T17:27:48.420Z,25.00
2018-04-18T17:30:16.799Z,25.65
2018-04-18T17:32:45.268Z,25.58
2018-04-18T17:35:13.665Z,26.03
2018-04-18T17:37:42.092Z,26.12
2018-04-18T17:40:10.471Z,26.16
2018-04-18T17:42:38.894Z,26.48
2018-04-18T17:45:07.361Z,26.12
2018-04-18T17:47:35.756Z,26.89
2018-04-18T17:50:04.157Z,27.47
2018-04-18T17:52:32.565Z,26.70
2018-04-18T17:55:01.011Z,27.58
2018-04-18T17:57:29.443Z,29.35
2018-04-18T17:59:57.838Z,30.33
2018-04-18T18:02:26.240Z,30.03
2018-04-18T18:04:54.650Z,30.46
2018-04-18T18:07:23.927Z,31.29
2018-04-18T18:10:06.833Z,31.95
2018-04-18T18:12:35.234Z,33.70
2018-04-18T18:15:03.698Z,34.15
2018-04-18T18:17:32.458Z,35.29
2018-04-18T18:20:01.597Z,35.84
2018-04-18T18:22:30.035Z,36.89
2018-04-18T18:24:58.450Z,38.01
2018-04-18T18:27:26.963Z,37.51
2018-04-18T18:29:55.383Z,37.92
2018-04-18T18:32:23.857Z,38.61
2018-04-18T18:34:52.266Z,38.07
2018-04-18T18:37:20.752Z,38.30
2018-04-18T18:39:49.210Z,38.54
2018-04-18T18:42:17.602Z,39.12
2018-04-18T18:44:46.049Z,39.55
2018-04-18T18:47:14.476Z,39.56
2018-04-18T18:49:42.955Z,40.15
2018-04-18T18:52:11.322Z,40.45
2018-04-18T18:54:39.733Z,41.03
2018-04-18T18:57:08.212Z,41.05
2018-04-18T18:59:36.596Z,41.31
2018-04-18T19:02:05.027Z,41.83
2018-04-18T19:04:33.401Z,41.64
2018-04-18T19:07:01.778Z,41.95
2018-04-18T19:09:30.185Z,42.75
2018-04-18T19:11:58.560Z,41.92
2018-04-18T19:14:27.133Z,42.54
2018-04-18T19:16:55.632Z,42.89
2018-04-18T19:19:24.034Z,42.88
2018-04-18T19:21:52.410Z,42.81
2018-04-18T19:24:20.808Z,42.70
2018-04-18T19:26:49.214Z,42.79
2018-04-18T19:29:17.656Z,43.85
2018-04-18T19:31:46.047Z,43.85
2018-04-18T19:34:14.454Z,44.21
2018-04-18T19:36:42.865Z,44.33
2018-04-18T19:39:11.533Z,44.64
2018-04-18T19:41:40.282Z,45.17
2018-04-18T19:44:08.759Z,45.01
2018-04-18T19:46:37.278Z,45.32
2018-04-18T19:49:05.758Z,45.81
2018-04-18T19:51:34.593Z,45.54
2018-04-18T19:54:02.997Z,46.32
2018-04-18T19:56:31.469Z,47.29
2018-04-18T19:58:59.967Z,47.87
2018-04-18T20:01:28.372Z,48.30
2018-04-18T20:03:56.802Z,47.57
2018-04-18T20:06:25.196Z,47.50
2018-04-18T20:08:53.629Z,48.49
2018-04-18T20:11:22.043Z,49.01
2018-04-18T20:13:50.445Z,48.55
2018-04-18T20:16:18.851Z,49.39
2018-04-18T20:18:47.255Z,48.54
2018-04-18T20:21:15.753Z,47.72
2018-04-18T20:23:44.254Z,48.24
2018-04-18T20:26:12.738Z,47.98
2018-04-18T20:28:41.329Z,48.81
2018-04-18T20:31:09.721Z,48.63
2018-04-18T20:33:38.289Z,48.75
2018-04-18T20:36:07.216Z,48.97
2018-04-18T20:38:36.520Z,49.55
2018-04-18T20:41:04.930Z,49.40
2018-04-18T20:43:33.530Z,49.37
2018-04-18T20:46:02.194Z,49.38
2018-04-18T20:48:30.601Z,49.45
2018-04-18T20:50:59.078Z,49.53
2018-04-18T20:53:27.569Z,49.56
2018-04-18T20:55:55.972Z,49.05
2018-04-18T20:58:24.504Z,49.01
2018-04-18T21:00:53.028Z,49.60
2018-04-18T21:03:21.434Z,50.52
2018-04-18T21:05:49.956Z,49.75
2018-04-18T21:08:18.312Z,49.92
2018-04-18T21:10:46.726Z,49.38
2018-04-18T21:13:15.085Z,49.66
2018-04-18T21:15:43.531Z,49.32
2018-04-18T21:18:11.990Z,48.71
2018-04-18T21:20:40.435Z,49.22
2018-04-18T21:23:08.890Z,49.56
2018-04-18T21:25:37.286Z,49.96
2018-04-18T21:28:05.721Z,49.63
2018-04-18T21:30:34.077Z,50.62
2018-04-18T21:33:02.446Z,51.24
2018-04-18T21:35:30.832Z,50.75
2018-04-18T21:37:59.214Z,50.77
2018-04-18T21:40:27.631Z,50.26
2018-04-18T21:42:55.987Z,50.77
2018-04-18T21:45:24.355Z,50.25
2018-04-18T21:47:53.422Z,51.21
2018-04-18T21:50:21.789Z,51.19
2018-04-18T21:52:50.245Z,50.66
2018-04-18T21:55:18.631Z,50.47
2018-04-18T21:57:47.180Z,50.22
2018-04-18T22:00:15.543Z,49.75
2018-04-18T22:02:43.922Z,50.72
2018-04-18T22:05:12.394Z,50.89
2018-04-18T22:07:40.791Z,50.68
2018-04-18T22:10:09.172Z,49.89
2018-04-18T22:12:37.552Z,49.99
2018-04-18T22:15:05.920Z,50.58
2018-04-18T22:17:34.411Z,50.50
2018-04-18T22:20:02.854Z,50.77
2018-04-18T22:22:31.235Z,51.54
2018-04-18T22:24:59.614Z,50.10
2018-04-18T22:27:27.970Z,51.16
2018-04-18T22:29:56.410Z,51.45
2018-04-18T22:32:24.819Z,51.65
2018-04-18T22:34:53.220Z,52.23
2018-04-18T22:37:21.608Z,51.49
2018-04-18T22:39:50.004Z,51.61
2018-04-18T22:42:18.422Z,52.26
2018-04-18T22:44:46.794Z,51.47
2018-04-18T22:47:15.249Z,51.93
2018-04-18T22:49:43.641Z,51.34
2018-04-18T22:52:12.021Z,51.07
2018-04-18T22:54:40.405Z,51.83
2018-04-18T22:57:08.798Z,51.78
2018-04-18T22:59:37.154Z,52.03
2018-04-18T23:02:05.547Z,51.81
2018-04-18T23:04:34.003Z,52.52
2018-04-18T23:07:02.416Z,51.99
2018-04-18T23:09:30.839Z,52.15
2018-04-18T23:11:59.234Z,52.36
2018-04-18T23:14:27.727Z,53.21
2018-04-18T23:16:56.207Z,51.91
2018-04-18T23:19:24.593Z,52.90
2018-04-18T23:21:52.993Z,52.58
2018-04-18T23:24:21.371Z,52.69
2018-04-18T23:26:49.797Z,52.10
2018-04-18T23:29:18.207Z,51.76
2018-04-18T23:31:46.626Z,52.57
2018-04-18T23:34:15.067Z,52.08
2018-04-18T23:36:43.413Z,54.23
2018-04-18T23:39:11.780Z,52.36
2018-04-18T23:41:40.146Z,52.26
2018-04-18T23:44:08.561Z,53.18
2018-04-18T23:46:36.914Z,52.00
2018-04-18T23:49:05.334Z,53.13
2018-04-18T23:51:33.706Z,53.42
2018-04-18T23:54:02.089Z,51.81
2018-04-18T23:56:30.448Z,52.30
2018-04-18T23:58:58.801Z,52.69
